sensor_id;sensor_type;location;lat;lon;timestamp;temperature;humidity
24518;DHT22;12678;51.336;12.406;2023-06-05T00:00:53;15.30;72.70
24518;DHT22;12678;51.336;12.406;2023-06-05T00:03:19;15.30;72.70
24518;DHT22;12678;51.336;12.406;2023-06-05T00:05:45;15.30;73.20
24518;DHT22;12678;51.336;12.406;2023-06-05T00:08:11;15.20;73.50
24518;DHT22;12678;51.336;12.406;2023-06-05T00:10:37;15.20;73.50
24518;DHT22;12678;51.336;12.406;2023-06-05T00:13:02;15.20;73.60
24518;DHT22;12678;51.336;12.406;2023-06-05T00:15:28;15.10;73.80
24518;DHT22;12678;51.336;12.406;2023-06-05T00:17:54;15.10;73.90
24518;DHT22;12678;51.336;12.406;2023-06-05T00:20:20;15.10;74.10
24518;DHT22;12678;51.336;12.406;2023-06-05T00:22:46;15.10;74.20
24518;DHT22;12678;51.336;12.406;2023-06-05T00:25:12;15.10;74.50
24518;DHT22;12678;51.336;12.406;2023-06-05T00:27:38;15.10;74.60
24518;DHT22;12678;51.336;12.406;2023-06-05T00:30:07;15.10;74.90
24518;DHT22;12678;51.336;12.406;2023-06-05T00:32:33;15.00;75.20
24518;DHT22;12678;51.336;12.406;2023-06-05T00:34:58;15.00;75.80
24518;DHT22;12678;51.336;12.406;2023-06-05T00:37:24;15.10;75.90
24518;DHT22;12678;51.336;12.406;2023-06-05T00:39:50;15.00;75.70
24518;DHT22;12678;51.336;12.406;2023-06-05T00:42:16;15.00;76.20
24518;DHT22;12678;51.336;12.406;2023-06-05T00:44:41;15.00;77.10
24518;DHT22;12678;51.336;12.406;2023-06-05T00:47:07;15.00;76.40
24518;DHT22;12678;51.336;12.406;2023-06-05T00:49:33;14.90;76.60
24518;DHT22;12678;51.336;12.406;2023-06-05T00:51:59;14.90;76.80
24518;DHT22;12678;51.336;12.406;2023-06-05T00:54:24;15.00;77.00
24518;DHT22;12678;51.336;12.406;2023-06-05T00:56:50;14.90;77.10
24518;DHT22;12678;51.336;12.406;2023-06-05T00:59:18;14.80;77.20
24518;DHT22;12678;51.336;12.406;2023-06-05T01:01:44;14.70;77.50
24518;DHT22;12678;51.336;12.406;2023-06-05T01:04:10;14.70;77.40
24518;DHT22;12678;51.336;12.406;2023-06-05T01:06:36;14.70;77.60
24518;DHT22;12678;51.336;12.406;2023-06-05T01:09:07;14.60;77.80
24518;DHT22;12678;51.336;12.406;2023-06-05T01:16:42;14.50;79.30
24518;DHT22;12678;51.336;12.406;2023-06-05T01:19:13;14.50;79.50
24518;DHT22;12678;51.336;12.406;2023-06-05T01:21:40;14.40;79.70
24518;DHT22;12678;51.336;12.406;2023-06-05T01:24:06;14.40;79.60
24518;DHT22;12678;51.336;12.406;2023-06-05T01:29:23;14.40;81.00
24518;DHT22;12678;51.336;12.406;2023-06-05T01:31:55;14.40;80.60
24518;DHT22;12678;51.336;12.406;2023-06-05T01:34:25;14.40;80.50
24518;DHT22;12678;51.336;12.406;2023-06-05T01:36:53;14.30;80.50
24518;DHT22;12678;51.336;12.406;2023-06-05T01:39:21;14.30;81.90
24518;DHT22;12678;51.336;12.406;2023-06-05T01:41:48;14.10;80.80
24518;DHT22;12678;51.336;12.406;2023-06-05T01:44:15;14.00;82.50
24518;DHT22;12678;51.336;12.406;2023-06-05T01:46:41;14.00;82.50
24518;DHT22;12678;51.336;12.406;2023-06-05T01:49:07;14.00;82.70
24518;DHT22;12678;51.336;12.406;2023-06-05T01:51:33;14.00;83.00
24518;DHT22;12678;51.336;12.406;2023-06-05T01:54:01;13.90;82.30
24518;DHT22;12678;51.336;12.406;2023-06-05T01:56:28;13.90;83.80
24518;DHT22;12678;51.336;12.406;2023-06-05T01:58:55;13.90;82.90
24518;DHT22;12678;51.336;12.406;2023-06-05T02:01:21;13.90;84.30
24518;DHT22;12678;51.336;12.406;2023-06-05T02:03:48;13.90;84.10
24518;DHT22;12678;51.336;12.406;2023-06-05T02:06:15;13.70;83.80
24518;DHT22;12678;51.336;12.406;2023-06-05T02:08:41;13.70;85.20
24518;DHT22;12678;51.336;12.406;2023-06-05T02:11:08;13.70;85.60
24518;DHT22;12678;51.336;12.406;2023-06-05T02:13:40;13.80;85.30
24518;DHT22;12678;51.336;12.406;2023-06-05T02:16:08;13.70;85.50
24518;DHT22;12678;51.336;12.406;2023-06-05T02:18:34;13.70;85.50
24518;DHT22;12678;51.336;12.406;2023-06-05T02:21:03;13.60;86.50
24518;DHT22;12678;51.336;12.406;2023-06-05T02:23:28;13.60;87.80
24518;DHT22;12678;51.336;12.406;2023-06-05T02:25:54;13.70;89.90
24518;DHT22;12678;51.336;12.406;2023-06-05T02:28:20;13.70;90.30
24518;DHT22;12678;51.336;12.406;2023-06-05T02:30:46;13.70;91.10
24518;DHT22;12678;51.336;12.406;2023-06-05T02:33:13;13.70;90.70
24518;DHT22;12678;51.336;12.406;2023-06-05T02:35:40;13.70;91.30
24518;DHT22;12678;51.336;12.406;2023-06-05T02:38:08;13.70;92.40
24518;DHT22;12678;51.336;12.406;2023-06-05T02:40:33;13.60;91.30
24518;DHT22;12678;51.336;12.406;2023-06-05T02:42:59;13.60;91.50
24518;DHT22;12678;51.336;12.406;2023-06-05T02:45:25;13.60;92.90
24518;DHT22;12678;51.336;12.406;2023-06-05T02:47:51;13.70;93.50
24518;DHT22;12678;51.336;12.406;2023-06-05T02:50:17;13.70;92.30
24518;DHT22;12678;51.336;12.406;2023-06-05T02:52:42;13.60;92.60
24518;DHT22;12678;51.336;12.406;2023-06-05T02:55:08;13.60;92.40
24518;DHT22;12678;51.336;12.406;2023-06-05T02:57:34;13.60;93.40
24518;DHT22;12678;51.336;12.406;2023-06-05T03:00:10;13.60;93.40
24518;DHT22;12678;51.336;12.406;2023-06-05T03:02:43;13.50;93.10
24518;DHT22;12678;51.336;12.406;2023-06-05T03:05:17;13.50;92.70
24518;DHT22;12678;51.336;12.406;2023-06-05T03:07:52;13.50;94.60
24518;DHT22;12678;51.336;12.406;2023-06-05T03:10:21;13.60;94.00
24518;DHT22;12678;51.336;12.406;2023-06-05T03:12:47;13.60;93.80
24518;DHT22;12678;51.336;12.406;2023-06-05T03:15:13;13.60;94.10
24518;DHT22;12678;51.336;12.406;2023-06-05T03:17:40;13.50;93.00
24518;DHT22;12678;51.336;12.406;2023-06-05T03:20:07;13.40;93.30
24518;DHT22;12678;51.336;12.406;2023-06-05T03:22:35;13.40;94.60
24518;DHT22;12678;51.336;12.406;2023-06-05T03:25:00;13.40;93.90
24518;DHT22;12678;51.336;12.406;2023-06-05T03:27:26;13.40;94.00
24518;DHT22;12678;51.336;12.406;2023-06-05T03:29:52;13.40;94.10
24518;DHT22;12678;51.336;12.406;2023-06-05T03:32:17;13.30;93.90
24518;DHT22;12678;51.336;12.406;2023-06-05T03:34:43;13.40;95.20
24518;DHT22;12678;51.336;12.406;2023-06-05T03:37:14;13.40;95.00
24518;DHT22;12678;51.336;12.406;2023-06-05T03:39:40;13.40;94.30
24518;DHT22;12678;51.336;12.406;2023-06-05T03:42:05;13.40;95.40
24518;DHT22;12678;51.336;12.406;2023-06-05T03:44:34;13.40;95.50
24518;DHT22;12678;51.336;12.406;2023-06-05T03:47:00;13.40;95.50
24518;DHT22;12678;51.336;12.406;2023-06-05T03:49:26;13.50;95.80
24518;DHT22;12678;51.336;12.406;2023-06-05T03:51:54;13.50;95.00
24518;DHT22;12678;51.336;12.406;2023-06-05T03:54:27;13.60;95.00
24518;DHT22;12678;51.336;12.406;2023-06-05T03:56:56;13.70;94.80
24518;DHT22;12678;51.336;12.406;2023-06-05T03:59:24;13.60;94.30
24518;DHT22;12678;51.336;12.406;2023-06-05T04:01:51;13.60;94.30
24518;DHT22;12678;51.336;12.406;2023-06-05T04:04:16;13.70;93.90
24518;DHT22;12678;51.336;12.406;2023-06-05T04:06:42;13.80;93.40
24518;DHT22;12678;51.336;12.406;2023-06-05T04:09:09;13.80;92.60
24518;DHT22;12678;51.336;12.406;2023-06-05T04:11:39;13.70;92.80
24518;DHT22;12678;51.336;12.406;2023-06-05T04:14:04;13.70;93.30
24518;DHT22;12678;51.336;12.406;2023-06-05T04:16:31;13.70;92.80
24518;DHT22;12678;51.336;12.406;2023-06-05T04:18:57;13.70;92.80
24518;DHT22;12678;51.336;12.406;2023-06-05T04:21:22;13.70;93.20
24518;DHT22;12678;51.336;12.406;2023-06-05T04:23:48;13.70;93.60
24518;DHT22;12678;51.336;12.406;2023-06-05T04:26:13;13.80;93.70
24518;DHT22;12678;51.336;12.406;2023-06-05T04:28:41;13.80;93.50
24518;DHT22;12678;51.336;12.406;2023-06-05T04:31:07;13.90;93.50
24518;DHT22;12678;51.336;12.406;2023-06-05T04:33:33;14.00;92.70
24518;DHT22;12678;51.336;12.406;2023-06-05T04:35:58;14.10;92.50
24518;DHT22;12678;51.336;12.406;2023-06-05T04:38:24;14.20;92.20
24518;DHT22;12678;51.336;12.406;2023-06-05T04:40:50;14.30;91.80
24518;DHT22;12678;51.336;12.406;2023-06-05T04:43:16;14.50;91.60
24518;DHT22;12678;51.336;12.406;2023-06-05T04:45:41;14.80;91.50
24518;DHT22;12678;51.336;12.406;2023-06-05T04:48:08;15.30;90.70
24518;DHT22;12678;51.336;12.406;2023-06-05T04:50:34;16.20;87.90
24518;DHT22;12678;51.336;12.406;2023-06-05T04:53:01;16.90;84.90
24518;DHT22;12678;51.336;12.406;2023-06-05T04:55:26;17.80;82.40
24518;DHT22;12678;51.336;12.406;2023-06-05T04:57:52;18.40;80.40
24518;DHT22;12678;51.336;12.406;2023-06-05T05:00:18;18.80;76.90
24518;DHT22;12678;51.336;12.406;2023-06-05T05:02:45;19.30;76.10
24518;DHT22;12678;51.336;12.406;2023-06-05T05:05:11;19.70;73.80
24518;DHT22;12678;51.336;12.406;2023-06-05T05:07:40;20.20;72.40
24518;DHT22;12678;51.336;12.406;2023-06-05T05:10:07;20.50;71.00
24518;DHT22;12678;51.336;12.406;2023-06-05T05:12:33;21.00;70.00
24518;DHT22;12678;51.336;12.406;2023-06-05T05:14:59;21.00;69.50
24518;DHT22;12678;51.336;12.406;2023-06-05T05:17:25;21.40;68.80
24518;DHT22;12678;51.336;12.406;2023-06-05T05:19:51;21.60;68.10
24518;DHT22;12678;51.336;12.406;2023-06-05T05:22:16;21.90;66.90
24518;DHT22;12678;51.336;12.406;2023-06-05T05:24:42;22.30;65.90
24518;DHT22;12678;51.336;12.406;2023-06-05T05:27:08;22.30;65.20
24518;DHT22;12678;51.336;12.406;2023-06-05T05:29:33;22.60;63.50
24518;DHT22;12678;51.336;12.406;2023-06-05T05:31:59;22.70;63.60
24518;DHT22;12678;51.336;12.406;2023-06-05T05:34:25;22.50;63.50
24518;DHT22;12678;51.336;12.406;2023-06-05T05:36:50;22.00;63.90
24518;DHT22;12678;51.336;12.406;2023-06-05T05:39:17;21.60;65.50
24518;DHT22;12678;51.336;12.406;2023-06-05T05:41:43;21.30;66.30
24518;DHT22;12678;51.336;12.406;2023-06-05T05:44:08;21.40;67.20
24518;DHT22;12678;51.336;12.406;2023-06-05T05:46:34;21.70;66.10
24518;DHT22;12678;51.336;12.406;2023-06-05T05:49:00;21.60;66.30
24518;DHT22;12678;51.336;12.406;2023-06-05T05:51:26;21.50;66.40
24518;DHT22;12678;51.336;12.406;2023-06-05T05:53:51;21.80;65.00
24518;DHT22;12678;51.336;12.406;2023-06-05T05:56:17;22.10;63.50
24518;DHT22;12678;51.336;12.406;2023-06-05T05:58:43;22.40;62.70
24518;DHT22;12678;51.336;12.406;2023-06-05T06:01:09;22.60;61.80
24518;DHT22;12678;51.336;12.406;2023-06-05T06:03:36;22.30;62.40
24518;DHT22;12678;51.336;12.406;2023-06-05T06:06:27;21.70;64.10
24518;DHT22;12678;51.336;12.406;2023-06-05T06:08:54;20.90;65.50
24518;DHT22;12678;51.336;12.406;2023-06-05T06:11:19;20.40;67.60
24518;DHT22;12678;51.336;12.406;2023-06-05T06:13:45;20.20;68.00
24518;DHT22;12678;51.336;12.406;2023-06-05T06:16:10;19.90;69.40
24518;DHT22;12678;51.336;12.406;2023-06-05T06:18:36;20.00;69.70
24518;DHT22;12678;51.336;12.406;2023-06-05T06:21:02;19.90;70.00
24518;DHT22;12678;51.336;12.406;2023-06-05T06:23:28;19.80;70.70
24518;DHT22;12678;51.336;12.406;2023-06-05T06:25:54;19.80;71.40
24518;DHT22;12678;51.336;12.406;2023-06-05T06:28:20;19.60;71.90
24518;DHT22;12678;51.336;12.406;2023-06-05T06:30:46;19.50;71.90
24518;DHT22;12678;51.336;12.406;2023-06-05T06:33:12;19.50;71.80
24518;DHT22;12678;51.336;12.406;2023-06-05T06:35:37;19.60;72.20
24518;DHT22;12678;51.336;12.406;2023-06-05T06:38:04;19.40;72.30
24518;DHT22;12678;51.336;12.406;2023-06-05T06:40:29;19.40;73.00
24518;DHT22;12678;51.336;12.406;2023-06-05T06:42:55;19.50;73.00
24518;DHT22;12678;51.336;12.406;2023-06-05T06:45:21;19.70;73.30
24518;DHT22;12678;51.336;12.406;2023-06-05T06:47:47;19.80;72.50
24518;DHT22;12678;51.336;12.406;2023-06-05T06:50:13;19.80;72.50
24518;DHT22;12678;51.336;12.406;2023-06-05T06:52:39;19.90;72.10
24518;DHT22;12678;51.336;12.406;2023-06-05T06:55:05;20.00;71.80
24518;DHT22;12678;51.336;12.406;2023-06-05T06:57:31;20.10;72.30
24518;DHT22;12678;51.336;12.406;2023-06-05T06:59:57;20.50;71.50
24518;DHT22;12678;51.336;12.406;2023-06-05T07:02:24;20.70;70.00
24518;DHT22;12678;51.336;12.406;2023-06-05T07:04:51;21.10;70.30
24518;DHT22;12678;51.336;12.406;2023-06-05T07:07:19;21.30;68.80
24518;DHT22;12678;51.336;12.406;2023-06-05T07:09:48;22.10;69.00
24518;DHT22;12678;51.336;12.406;2023-06-05T07:12:14;23.10;65.50
24518;DHT22;12678;51.336;12.406;2023-06-05T07:14:40;23.50;64.50
24518;DHT22;12678;51.336;12.406;2023-06-05T07:17:07;23.90;63.00
24518;DHT22;12678;51.336;12.406;2023-06-05T07:19:33;24.20;62.20
24518;DHT22;12678;51.336;12.406;2023-06-05T07:22:00;24.50;60.80
24518;DHT22;12678;51.336;12.406;2023-06-05T07:24:28;24.00;61.30
24518;DHT22;12678;51.336;12.406;2023-06-05T07:26:55;23.60;62.10
24518;DHT22;12678;51.336;12.406;2023-06-05T07:29:24;23.40;62.00
24518;DHT22;12678;51.336;12.406;2023-06-05T07:31:51;23.20;62.60
24518;DHT22;12678;51.336;12.406;2023-06-05T07:34:20;22.70;64.60
24518;DHT22;12678;51.336;12.406;2023-06-05T07:36:47;22.60;64.40
24518;DHT22;12678;51.336;12.406;2023-06-05T07:39:13;22.30;65.40
24518;DHT22;12678;51.336;12.406;2023-06-05T07:41:39;22.50;65.30
24518;DHT22;12678;51.336;12.406;2023-06-05T07:44:09;22.30;65.90
24518;DHT22;12678;51.336;12.406;2023-06-05T07:46:35;22.50;65.80
24518;DHT22;12678;51.336;12.406;2023-06-05T07:49:01;22.20;66.60
24518;DHT22;12678;51.336;12.406;2023-06-05T07:51:27;21.90;67.50
24518;DHT22;12678;51.336;12.406;2023-06-05T07:53:52;21.80;67.60
24518;DHT22;12678;51.336;12.406;2023-06-05T07:56:18;21.70;68.10
24518;DHT22;12678;51.336;12.406;2023-06-05T07:58:43;21.70;68.60
24518;DHT22;12678;51.336;12.406;2023-06-05T08:01:10;21.70;69.30
24518;DHT22;12678;51.336;12.406;2023-06-05T08:03:38;21.70;70.40
24518;DHT22;12678;51.336;12.406;2023-06-05T08:06:03;21.50;70.10
24518;DHT22;12678;51.336;12.406;2023-06-05T08:08:29;21.60;69.90
24518;DHT22;12678;51.336;12.406;2023-06-05T08:10:56;21.60;69.20
24518;DHT22;12678;51.336;12.406;2023-06-05T08:13:22;21.60;69.40
24518;DHT22;12678;51.336;12.406;2023-06-05T08:15:47;22.00;69.10
24518;DHT22;12678;51.336;12.406;2023-06-05T08:18:14;22.50;68.60
24518;DHT22;12678;51.336;12.406;2023-06-05T08:20:41;23.30;67.00
24518;DHT22;12678;51.336;12.406;2023-06-05T08:23:06;23.90;64.90
24518;DHT22;12678;51.336;12.406;2023-06-05T08:25:32;24.60;62.70
24518;DHT22;12678;51.336;12.406;2023-06-05T08:27:58;23.90;63.10
24518;DHT22;12678;51.336;12.406;2023-06-05T08:30:24;24.10;62.20
24518;DHT22;12678;51.336;12.406;2023-06-05T08:32:49;24.50;62.00
24518;DHT22;12678;51.336;12.406;2023-06-05T08:35:15;25.00;61.40
24518;DHT22;12678;51.336;12.406;2023-06-05T08:37:41;25.30;61.40
24518;DHT22;12678;51.336;12.406;2023-06-05T08:40:07;24.90;60.90
24518;DHT22;12678;51.336;12.406;2023-06-05T08:42:34;24.80;61.30
24518;DHT22;12678;51.336;12.406;2023-06-05T08:45:00;24.80;59.60
24518;DHT22;12678;51.336;12.406;2023-06-05T08:47:28;24.70;60.70
24518;DHT22;12678;51.336;12.406;2023-06-05T08:49:58;24.80;62.20
24518;DHT22;12678;51.336;12.406;2023-06-05T08:52:27;24.90;59.30
24518;DHT22;12678;51.336;12.406;2023-06-05T08:54:56;25.10;59.30
24518;DHT22;12678;51.336;12.406;2023-06-05T08:57:22;24.40;59.40
24518;DHT22;12678;51.336;12.406;2023-06-05T08:59:49;24.50;60.00
24518;DHT22;12678;51.336;12.406;2023-06-05T09:02:16;24.70;58.80
24518;DHT22;12678;51.336;12.406;2023-06-05T09:04:41;24.90;57.50
24518;DHT22;12678;51.336;12.406;2023-06-05T09:07:07;24.70;57.70
24518;DHT22;12678;51.336;12.406;2023-06-05T09:09:33;24.50;57.50
24518;DHT22;12678;51.336;12.406;2023-06-05T09:12:07;24.60;57.30
24518;DHT22;12678;51.336;12.406;2023-06-05T09:14:34;24.80;58.10
24518;DHT22;12678;51.336;12.406;2023-06-05T09:17:01;25.00;57.10
24518;DHT22;12678;51.336;12.406;2023-06-05T09:19:40;24.90;57.10
24518;DHT22;12678;51.336;12.406;2023-06-05T09:22:09;24.80;57.10
24518;DHT22;12678;51.336;12.406;2023-06-05T09:24:36;24.80;57.10
24518;DHT22;12678;51.336;12.406;2023-06-05T09:27:02;24.90;56.10
24518;DHT22;12678;51.336;12.406;2023-06-05T09:32:19;24.70;56.40
24518;DHT22;12678;51.336;12.406;2023-06-05T09:34:58;24.40;56.80
24518;DHT22;12678;51.336;12.406;2023-06-05T09:37:36;24.40;57.80
24518;DHT22;12678;51.336;12.406;2023-06-05T09:40:03;24.20;58.00
24518;DHT22;12678;51.336;12.406;2023-06-05T09:42:34;24.30;58.40
24518;DHT22;12678;51.336;12.406;2023-06-05T09:45:02;24.50;57.50
24518;DHT22;12678;51.336;12.406;2023-06-05T09:47:27;24.80;57.00
24518;DHT22;12678;51.336;12.406;2023-06-05T09:49:53;24.70;55.50
24518;DHT22;12678;51.336;12.406;2023-06-05T09:52:19;24.60;55.30
24518;DHT22;12678;51.336;12.406;2023-06-05T09:54:45;24.30;55.10
24518;DHT22;12678;51.336;12.406;2023-06-05T09:57:13;24.40;55.90
24518;DHT22;12678;51.336;12.406;2023-06-05T09:59:51;24.60;55.90
24518;DHT22;12678;51.336;12.406;2023-06-05T10:02:25;24.40;54.40
24518;DHT22;12678;51.336;12.406;2023-06-05T10:05:00;24.60;55.10
24518;DHT22;12678;51.336;12.406;2023-06-05T10:07:27;24.80;54.80
24518;DHT22;12678;51.336;12.406;2023-06-05T10:09:53;24.60;54.40
24518;DHT22;12678;51.336;12.406;2023-06-05T10:12:20;24.50;54.60
24518;DHT22;12678;51.336;12.406;2023-06-05T10:14:47;24.30;54.60
24518;DHT22;12678;51.336;12.406;2023-06-05T10:17:14;24.30;55.30
24518;DHT22;12678;51.336;12.406;2023-06-05T10:19:43;24.30;54.80
24518;DHT22;12678;51.336;12.406;2023-06-05T10:22:11;24.50;54.60
24518;DHT22;12678;51.336;12.406;2023-06-05T10:24:48;24.70;54.60
24518;DHT22;12678;51.336;12.406;2023-06-05T10:27:54;24.90;54.80
24518;DHT22;12678;51.336;12.406;2023-06-05T10:33:11;25.30;54.10
24518;DHT22;12678;51.336;12.406;2023-06-05T10:35:55;25.50;54.00
24518;DHT22;12678;51.336;12.406;2023-06-05T10:38:26;25.80;53.70
24518;DHT22;12678;51.336;12.406;2023-06-05T10:40:53;25.80;53.00
24518;DHT22;12678;51.336;12.406;2023-06-05T10:43:33;25.80;52.70
24518;DHT22;12678;51.336;12.406;2023-06-05T10:46:01;25.70;53.10
24518;DHT22;12678;51.336;12.406;2023-06-05T10:49:30;25.20;53.30
24518;DHT22;12678;51.336;12.406;2023-06-05T10:51:40;25.00;53.80
24518;DHT22;12678;51.336;12.406;2023-06-05T10:54:08;25.00;54.90
24518;DHT22;12678;51.336;12.406;2023-06-05T10:59:32;25.60;54.30
24518;DHT22;12678;51.336;12.406;2023-06-05T11:07:22;25.90;53.60
24518;DHT22;12678;51.336;12.406;2023-06-05T11:15:12;25.30;54.50
24518;DHT22;12678;51.336;12.406;2023-06-05T11:17:40;25.30;54.80
24518;DHT22;12678;51.336;12.406;2023-06-05T11:27:59;24.80;55.10
24518;DHT22;12678;51.336;12.406;2023-06-05T11:30:28;24.80;55.40
24518;DHT22;12678;51.336;12.406;2023-06-05T11:33:06;24.90;55.30
24518;DHT22;12678;51.336;12.406;2023-06-05T11:35:34;25.10;55.30
24518;DHT22;12678;51.336;12.406;2023-06-05T11:38:15;25.30;55.50
24518;DHT22;12678;51.336;12.406;2023-06-05T11:40:42;25.60;54.60
24518;DHT22;12678;51.336;12.406;2023-06-05T11:43:09;25.50;54.90
24518;DHT22;12678;51.336;12.406;2023-06-05T11:45:39;25.50;54.80
24518;DHT22;12678;51.336;12.406;2023-06-05T11:48:10;25.70;54.40
24518;DHT22;12678;51.336;12.406;2023-06-05T11:50:37;25.50;54.20
24518;DHT22;12678;51.336;12.406;2023-06-05T11:53:12;25.60;54.80
24518;DHT22;12678;51.336;12.406;2023-06-05T11:55:37;25.70;54.10
24518;DHT22;12678;51.336;12.406;2023-06-05T11:58:26;25.70;54.10
24518;DHT22;12678;51.336;12.406;2023-06-05T12:03:43;25.80;54.70
24518;DHT22;12678;51.336;12.406;2023-06-05T12:06:09;25.90;54.30
24518;DHT22;12678;51.336;12.406;2023-06-05T12:08:37;25.90;53.80
24518;DHT22;12678;51.336;12.406;2023-06-05T12:11:04;25.60;54.00
24518;DHT22;12678;51.336;12.406;2023-06-05T12:13:50;25.70;53.70
24518;DHT22;12678;51.336;12.406;2023-06-05T12:16:17;25.70;53.40
24518;DHT22;12678;51.336;12.406;2023-06-05T12:18:44;25.70;53.70
24518;DHT22;12678;51.336;12.406;2023-06-05T12:21:23;25.80;54.10
24518;DHT22;12678;51.336;12.406;2023-06-05T12:23:49;25.60;54.70
24518;DHT22;12678;51.336;12.406;2023-06-05T12:26:15;25.70;54.90
24518;DHT22;12678;51.336;12.406;2023-06-05T12:28:43;25.70;54.40
24518;DHT22;12678;51.336;12.406;2023-06-05T12:31:10;25.60;54.80
24518;DHT22;12678;51.336;12.406;2023-06-05T12:33:48;25.60;54.80
24518;DHT22;12678;51.336;12.406;2023-06-05T12:36:14;25.50;54.90
24518;DHT22;12678;51.336;12.406;2023-06-05T12:38:42;25.50;54.50
24518;DHT22;12678;51.336;12.406;2023-06-05T12:41:08;25.70;54.10
24518;DHT22;12678;51.336;12.406;2023-06-05T12:43:37;25.70;54.40
24518;DHT22;12678;51.336;12.406;2023-06-05T12:46:04;25.50;54.70
24518;DHT22;12678;51.336;12.406;2023-06-05T12:48:30;25.50;54.40
24518;DHT22;12678;51.336;12.406;2023-06-05T12:50:57;25.40;53.80
24518;DHT22;12678;51.336;12.406;2023-06-05T12:53:22;25.30;54.10
24518;DHT22;12678;51.336;12.406;2023-06-05T12:55:48;25.10;54.60
24518;DHT22;12678;51.336;12.406;2023-06-05T12:58:14;25.10;54.90
24518;DHT22;12678;51.336;12.406;2023-06-05T13:00:40;25.00;55.00
24518;DHT22;12678;51.336;12.406;2023-06-05T13:03:05;25.10;55.60
24518;DHT22;12678;51.336;12.406;2023-06-05T13:05:31;25.00;55.80
24518;DHT22;12678;51.336;12.406;2023-06-05T13:07:58;24.90;55.60
24518;DHT22;12678;51.336;12.406;2023-06-05T13:10:24;24.90;55.90
24518;DHT22;12678;51.336;12.406;2023-06-05T13:12:50;24.80;56.50
24518;DHT22;12678;51.336;12.406;2023-06-05T13:15:15;24.70;56.10
24518;DHT22;12678;51.336;12.406;2023-06-05T13:17:41;24.70;55.70
24518;DHT22;12678;51.336;12.406;2023-06-05T13:20:07;24.70;55.60
24518;DHT22;12678;51.336;12.406;2023-06-05T13:22:40;24.60;56.40
24518;DHT22;12678;51.336;12.406;2023-06-05T13:25:07;24.50;56.20
24518;DHT22;12678;51.336;12.406;2023-06-05T13:27:34;24.60;56.80
24518;DHT22;12678;51.336;12.406;2023-06-05T13:29:59;24.70;56.90
24518;DHT22;12678;51.336;12.406;2023-06-05T13:32:25;24.60;56.50
24518;DHT22;12678;51.336;12.406;2023-06-05T13:34:51;24.70;56.30
24518;DHT22;12678;51.336;12.406;2023-06-05T13:37:18;25.00;56.50
24518;DHT22;12678;51.336;12.406;2023-06-05T13:39:44;25.10;56.20
24518;DHT22;12678;51.336;12.406;2023-06-05T13:42:10;25.20;54.80
24518;DHT22;12678;51.336;12.406;2023-06-05T13:44:37;25.20;54.80
24518;DHT22;12678;51.336;12.406;2023-06-05T13:47:02;25.00;54.50
24518;DHT22;12678;51.336;12.406;2023-06-05T13:49:29;25.20;54.90
24518;DHT22;12678;51.336;12.406;2023-06-05T13:51:55;25.30;54.10
24518;DHT22;12678;51.336;12.406;2023-06-05T13:54:20;25.30;53.70
24518;DHT22;12678;51.336;12.406;2023-06-05T13:56:46;25.30;54.20
24518;DHT22;12678;51.336;12.406;2023-06-05T13:59:12;25.30;54.80
24518;DHT22;12678;51.336;12.406;2023-06-05T14:01:38;25.30;54.20
24518;DHT22;12678;51.336;12.406;2023-06-05T14:04:03;25.40;53.90
24518;DHT22;12678;51.336;12.406;2023-06-05T14:06:29;25.40;54.10
24518;DHT22;12678;51.336;12.406;2023-06-05T14:08:54;25.40;54.20
24518;DHT22;12678;51.336;12.406;2023-06-05T14:11:20;25.30;54.00
24518;DHT22;12678;51.336;12.406;2023-06-05T14:13:46;25.20;54.80
24518;DHT22;12678;51.336;12.406;2023-06-05T14:16:11;25.30;55.00
24518;DHT22;12678;51.336;12.406;2023-06-05T14:18:38;25.40;54.40
24518;DHT22;12678;51.336;12.406;2023-06-05T14:21:04;25.40;54.10
24518;DHT22;12678;51.336;12.406;2023-06-05T14:23:29;25.30;54.10
24518;DHT22;12678;51.336;12.406;2023-06-05T14:25:55;25.10;54.30
24518;DHT22;12678;51.336;12.406;2023-06-05T14:28:20;25.00;54.10
24518;DHT22;12678;51.336;12.406;2023-06-05T14:30:48;25.00;54.40
24518;DHT22;12678;51.336;12.406;2023-06-05T14:33:13;25.00;54.20
24518;DHT22;12678;51.336;12.406;2023-06-05T14:35:40;25.00;54.30
24518;DHT22;12678;51.336;12.406;2023-06-05T14:38:05;25.10;54.30
24518;DHT22;12678;51.336;12.406;2023-06-05T14:40:31;25.10;54.40
24518;DHT22;12678;51.336;12.406;2023-06-05T14:42:58;25.20;54.50
24518;DHT22;12678;51.336;12.406;2023-06-05T14:45:25;25.30;54.80
24518;DHT22;12678;51.336;12.406;2023-06-05T14:47:50;25.30;54.60
24518;DHT22;12678;51.336;12.406;2023-06-05T14:50:16;25.30;54.00
24518;DHT22;12678;51.336;12.406;2023-06-05T14:52:42;25.40;54.40
24518;DHT22;12678;51.336;12.406;2023-06-05T14:55:08;25.50;54.10
24518;DHT22;12678;51.336;12.406;2023-06-05T14:57:35;25.40;54.10
24518;DHT22;12678;51.336;12.406;2023-06-05T15:00:02;25.30;54.20
24518;DHT22;12678;51.336;12.406;2023-06-05T15:02:30;25.10;54.60
24518;DHT22;12678;51.336;12.406;2023-06-05T15:04:56;24.90;54.40
24518;DHT22;12678;51.336;12.406;2023-06-05T15:07:24;24.80;55.40
24518;DHT22;12678;51.336;12.406;2023-06-05T15:09:49;24.70;54.80
24518;DHT22;12678;51.336;12.406;2023-06-05T15:12:17;24.60;55.10
24518;DHT22;12678;51.336;12.406;2023-06-05T15:14:43;24.60;55.10
24518;DHT22;12678;51.336;12.406;2023-06-05T15:17:09;24.60;54.90
24518;DHT22;12678;51.336;12.406;2023-06-05T15:19:35;24.60;54.60
24518;DHT22;12678;51.336;12.406;2023-06-05T15:22:01;24.70;54.80
24518;DHT22;12678;51.336;12.406;2023-06-05T15:24:27;24.90;54.10
24518;DHT22;12678;51.336;12.406;2023-06-05T15:26:53;24.90;54.30
24518;DHT22;12678;51.336;12.406;2023-06-05T15:29:20;25.00;54.30
24518;DHT22;12678;51.336;12.406;2023-06-05T15:31:46;25.10;54.30
24518;DHT22;12678;51.336;12.406;2023-06-05T15:34:12;25.10;53.70
24518;DHT22;12678;51.336;12.406;2023-06-05T15:36:38;25.10;53.60
24518;DHT22;12678;51.336;12.406;2023-06-05T15:39:04;25.10;53.30
24518;DHT22;12678;51.336;12.406;2023-06-05T15:41:30;25.20;53.70
24518;DHT22;12678;51.336;12.406;2023-06-05T15:43:56;25.30;53.40
24518;DHT22;12678;51.336;12.406;2023-06-05T15:46:22;25.10;52.70
24518;DHT22;12678;51.336;12.406;2023-06-05T15:48:49;25.10;52.80
24518;DHT22;12678;51.336;12.406;2023-06-05T15:51:15;25.20;53.00
24518;DHT22;12678;51.336;12.406;2023-06-05T15:53:41;25.20;51.70